Time;durP1;ratioP1;P1;durP2;ratioP2;P2;SDS_P1;SDS_P2;PMS_P1;PMS_P2;Temp;Humidity;BMP_temperature;BMP_pressure;BME280_temperature;BME280_humidity;BME280_pressure;Samples;Min_cycle;Max_cycle;Signal;HPM_P1;HPM_P2
2022/05/24 00:01:18;;;;;;;27.92;16.50;;;13.70;99.90;;;;;;5092802;28;20070;-64
2022/05/24 00:03:44;;;;;;;27.08;17.92;;;12.50;99.90;;;;;;5092698;28;20055;-62
2022/05/24 00:06:10;;;;;;;24.40;16.55;;;12.50;99.90;;;;;;5092894;28;20055;-62
2022/05/24 00:08:36;;;;;;;29.00;17.45;;;13.20;99.90;;;;;;5092539;28;20575;-63
2022/05/24 00:11:02;;;;;;;23.65;16.52;;;12.70;99.90;;;;;;5092763;28;20131;-62
2022/05/24 00:13:27;;;;;;;23.13;15.43;;;12.70;99.90;;;;;;5092786;28;20040;-62
2022/05/24 00:15:53;;;;;;;21.58;14.30;;;12.80;99.90;;;;;;5092680;28;20051;-64
2022/05/24 00:18:21;;;;;;;22.45;14.45;;;12.40;99.90;;;;;;5092518;28;20047;-62
2022/05/24 00:20:56;;;;;;;21.67;14.98;;;12.60;99.90;;;;;;5091736;28;20399;-61
2022/05/24 00:23:23;;;;;;;20.98;14.68;;;12.50;99.90;;;;;;5092673;28;20051;-61
2022/05/24 00:25:52;;;;;;;21.10;13.95;;;12.40;99.90;;;;;;5092614;28;20081;-62
2022/05/24 00:28:19;;;;;;;17.98;13.13;;;12.70;99.90;;;;;;5092435;28;20050;-64
2022/05/24 00:30:47;;;;;;;25.70;14.93;;;12.60;99.90;;;;;;5092353;28;20063;-61
2022/05/24 00:33:14;;;;;;;21.05;14.27;;;12.40;99.90;;;;;;5092574;28;20047;-61
2022/05/24 00:35:40;;;;;;;21.70;13.00;;;13.40;99.90;;;;;;5092525;28;20046;-62
2022/05/24 00:38:10;;;;;;;21.38;13.30;;;13.60;99.90;;;;;;5092348;28;20403;-62
2022/05/24 00:40:45;;;;;;;17.40;11.00;;;13.10;99.90;;;;;;5092386;28;20051;-62
2022/05/24 00:43:20;;;;;;;16.35;10.05;;;12.60;99.90;;;;;;5092427;28;20093;-62
2022/05/24 00:45:53;;;;;;;16.75;9.95;;;12.70;99.90;;;;;;5092424;28;20040;-62
2022/05/24 00:48:29;;;;;;;17.70;10.75;;;12.50;99.90;;;;;;5092631;28;20054;-63
2022/05/24 00:50:56;;;;;;;18.17;11.32;;;12.60;99.90;;;;;;5093765;28;20411;-62
2022/05/24 00:53:33;;;;;;;13.95;9.88;;;12.80;99.90;;;;;;5096609;28;20048;-62
2022/05/24 00:56:06;;;;;;;14.23;10.68;;;12.50;99.90;;;;;;5095340;28;20453;-62
2022/05/24 00:58:43;;;;;;;16.88;10.13;;;12.50;99.90;;;;;;5096419;28;20131;-62
2022/05/24 01:01:24;;;;;;;17.52;10.73;;;12.60;99.90;;;;;;5096402;28;20048;-64
2022/05/24 01:03:50;;;;;;;12.77;9.52;;;12.20;99.90;;;;;;5096214;28;20051;-62
2022/05/24 01:06:16;;;;;;;16.23;9.82;;;12.70;99.90;;;;;;5096104;28;20143;-63
2022/05/24 01:08:42;;;;;;;12.60;9.60;;;12.80;99.90;;;;;;5095981;28;20633;-62
2022/05/24 01:11:09;;;;;;;15.98;10.05;;;12.70;99.90;;;;;;5096228;28;20055;-62
2022/05/24 01:13:35;;;;;;;15.35;9.48;;;12.60;99.90;;;;;;5096152;28;20073;-62
2022/05/24 01:16:01;;;;;;;13.90;9.55;;;12.50;99.90;;;;;;5095954;28;20405;-62
2022/05/24 01:18:26;;;;;;;12.52;9.45;;;13.00;99.90;;;;;;5094780;28;20048;-62
2022/05/24 01:20:57;;;;;;;15.98;10.15;;;12.50;99.90;;;;;;5095700;28;20109;-62
2022/05/24 01:23:41;;;;;;;14.50;8.77;;;12.10;99.90;;;;;;5095827;28;20510;-62
2022/05/24 01:26:18;;;;;;;14.55;8.93;;;12.40;99.90;;;;;;5095962;28;20051;-62
2022/05/24 01:28:51;;;;;;;13.93;9.18;;;12.20;99.90;;;;;;5095493;28;21595;-64
2022/05/24 01:31:18;;;;;;;12.43;8.98;;;12.00;99.90;;;;;;5095557;28;20048;-62
2022/05/24 01:36:33;;;;;;;17.67;9.30;;;12.20;99.90;;;;;;5095798;28;20530;-62
2022/05/24 01:39:03;;;;;;;15.27;9.88;;;12.40;99.90;;;;;;5095524;28;20054;-62
2022/05/24 01:41:35;;;;;;;12.30;9.77;;;13.40;99.90;;;;;;5095485;28;20392;-63
2022/05/24 01:44:02;;;;;;;14.90;10.18;;;12.50;99.90;;;;;;5095382;28;20535;-62
2022/05/24 01:46:35;;;;;;;14.68;9.48;;;12.10;99.90;;;;;;5094408;28;20056;-62
2022/05/24 01:49:08;;;;;;;15.55;10.45;;;12.20;99.90;;;;;;5095438;28;20051;-62
2022/05/24 01:51:38;;;;;;;15.43;10.00;;;12.30;99.90;;;;;;5095315;28;20051;-63
2022/05/24 01:54:06;;;;;;;20.15;10.93;;;12.50;99.90;;;;;;5095205;28;20058;-65
2022/05/24 01:56:43;;;;;;;16.38;10.48;;;12.20;99.90;;;;;;5093894;28;20094;-62
2022/05/24 01:59:10;;;;;;;17.55;11.48;;;12.20;99.90;;;;;;5095356;28;20052;-64
2022/05/24 02:01:45;;;;;;;16.35;10.93;;;12.10;99.90;;;;;;5094806;28;20095;-62
2022/05/24 02:04:11;;;;;;;17.98;11.00;;;12.10;99.90;;;;;;5095044;28;20054;-62
2022/05/24 02:06:37;;;;;;;15.63;11.30;;;12.00;99.90;;;;;;5093792;28;20043;-63
2022/05/24 02:09:04;;;;;;;;;;;12.20;99.90;;;;;;5095044;28;20044;-63
2022/05/24 02:11:31;;;;;;;23.98;11.88;;;12.00;99.90;;;;;;5095040;28;20501;-65
2022/05/24 02:14:11;;;;;;;18.75;11.88;;;13.30;99.90;;;;;;5095002;28;20400;-63
2022/05/24 02:16:43;;;;;;;18.88;11.98;;;12.00;99.90;;;;;;5094880;28;20067;-63
2022/05/24 02:19:11;;;;;;;20.27;12.35;;;13.40;99.90;;;;;;5094838;28;20054;-63
2022/05/24 02:21:40;;;;;;;22.90;13.52;;;12.20;99.90;;;;;;5094580;28;20055;-63
2022/05/24 02:24:35;;;;;;;20.75;14.10;;;12.60;99.90;;;;;;5093858;28;20506;-62
2022/05/24 02:27:02;;;;;;;18.90;13.32;;;12.30;99.90;;;;;;5085485;28;20499;-62
2022/05/24 02:29:28;;;;;;;23.85;14.57;;;12.30;99.90;;;;;;5094201;28;20048;-62
2022/05/24 02:31:53;;;;;;;;;;;12.60;99.90;;;;;;5094877;28;20043;-63
2022/05/24 02:34:19;;;;;;;25.02;15.77;;;13.10;99.90;;;;;;5094536;28;19920;-63
2022/05/24 02:36:45;;;;;;;23.67;15.45;;;12.50;99.90;;;;;;5094658;28;20504;-65
2022/05/24 02:39:11;;;;;;;24.40;17.20;;;12.20;99.90;;;;;;5094366;28;20127;-62
2022/05/24 02:41:36;;;;;;;22.95;15.82;;;12.50;99.90;;;;;;5094504;28;20040;-62
2022/05/24 02:44:15;;;;;;;28.20;17.50;;;12.60;99.90;;;;;;5094162;28;20044;-62
2022/05/24 02:46:44;;;;;;;25.27;18.00;;;12.60;99.90;;;;;;5093993;28;20056;-62
2022/05/24 02:49:10;;;;;;;32.40;18.67;;;12.50;99.90;;;;;;5094382;28;20403;-65
2022/05/24 02:51:37;;;;;;;33.15;19.02;;;13.30;99.90;;;;;;5094213;28;20047;-61
2022/05/24 02:54:04;;;;;;;34.10;19.15;;;12.50;99.90;;;;;;5094298;28;20196;-61
2022/05/24 02:56:30;;;;;;;34.45;19.52;;;12.80;99.90;;;;;;5093957;28;20044;-61
2022/05/24 02:58:56;;;;;;;36.38;20.05;;;12.80;99.90;;;;;;5093937;28;20051;-61
2022/05/24 03:01:24;;;;;;;40.40;20.95;;;12.50;99.90;;;;;;5093866;28;20044;-61
2022/05/24 03:03:52;;;;;;;39.05;21.65;;;12.50;99.90;;;;;;5093915;28;20440;-61
2022/05/24 03:06:19;;;;;;;38.13;21.50;;;12.90;99.90;;;;;;5092947;28;20052;-62
2022/05/24 03:14:14;;;;;;;42.75;23.73;;;13.00;99.90;;;;;;5092665;28;20055;-61
2022/05/24 03:14:17;;;;;;;50.00;25.70;;;12.80;99.90;;;;;;5092817;28;20059;-65
2022/05/24 03:16:52;;;;;;;46.78;25.52;;;13.00;99.90;;;;;;5093683;28;20055;-61
2022/05/24 03:19:18;;;;;;;56.72;26.60;;;13.00;99.90;;;;;;5092380;28;20080;-61
2022/05/24 03:21:44;;;;;;;;;;;12.80;99.90;;;;;;5093884;28;20052;-61
2022/05/24 03:24:10;;;;;;;60.45;28.10;;;12.80;99.90;;;;;;5093363;28;19920;-61
2022/05/24 03:26:37;;;;;;;69.05;28.83;;;13.00;99.90;;;;;;5093548;28;20405;-61
2022/05/24 03:29:04;;;;;;;58.00;29.55;;;12.70;99.90;;;;;;5093411;28;20059;-62
2022/05/24 03:31:29;;;;;;;67.63;29.00;;;12.70;99.90;;;;;;5091996;28;20517;-61
2022/05/24 03:33:55;;;;;;;61.95;29.25;;;13.10;99.90;;;;;;5093474;28;20094;-61
2022/05/24 03:36:22;;;;;;;60.72;28.80;;;12.70;99.90;;;;;;5093164;28;20048;-62
2022/05/24 03:38:47;;;;;;;71.53;30.88;;;12.90;99.90;;;;;;5093153;28;20063;-62
2022/05/24 03:41:13;;;;;;;65.90;30.83;;;12.90;99.90;;;;;;5093244;28;20052;-62
2022/05/24 03:43:39;;;;;;;59.55;27.08;;;13.90;99.90;;;;;;5093177;28;20100;-62
2022/05/24 03:46:08;;;;;;;48.08;25.58;;;12.80;99.90;;;;;;5093066;28;20044;-61
2022/05/24 03:48:34;;;;;;;49.70;25.73;;;13.00;99.90;;;;;;5093005;28;20040;-61
2022/05/24 03:51:00;;;;;;;59.25;25.08;;;12.70;99.90;;;;;;5093045;28;20051;-62
2022/05/24 03:53:27;;;;;;;50.42;25.05;;;12.90;99.90;;;;;;5092843;28;20071;-62
2022/05/24 03:55:53;;;;;;;51.88;25.70;;;12.70;99.90;;;;;;5093131;28;20097;-61
2022/05/24 03:58:19;;;;;;;;;;;14.10;99.90;;;;;;5093427;28;20052;-61
2022/05/24 04:00:45;;;;;;;60.28;30.55;;;12.80;99.90;;;;;;5092817;28;19927;-62
2022/05/24 04:03:12;;;;;;;65.22;31.40;;;12.50;99.90;;;;;;5092950;28;20047;-63
2022/05/24 04:05:38;;;;;;;60.58;30.67;;;12.90;99.90;;;;;;5092633;28;20045;-62
2022/05/24 04:08:04;;;;;;;62.53;31.80;;;13.40;99.90;;;;;;5092757;28;20459;-62
2022/05/24 04:10:31;;;;;;;65.50;32.25;;;13.10;99.90;;;;;;5092648;28;20040;-62
2022/05/24 04:12:57;;;;;;;60.67;31.73;;;12.90;99.90;;;;;;5092876;28;20483;-62
2022/05/24 04:15:23;;;;;;;;;;;13.10;99.90;;;;;;5092943;28;20549;-62
2022/05/24 04:17:51;;;;;;;57.55;30.52;;;13.10;99.90;;;;;;5092647;28;19985;-62
2022/05/24 04:20:17;;;;;;;60.75;30.38;;;13.30;99.90;;;;;;5092510;28;20051;-64
2022/05/24 04:22:43;;;;;;;56.88;30.23;;;13.90;99.90;;;;;;5092639;28;20075;-62
2022/05/24 04:25:10;;;;;;;51.70;29.55;;;13.60;99.90;;;;;;5091316;28;20104;-62
2022/05/24 04:27:36;;;;;;;58.65;28.45;;;13.10;99.90;;;;;;5092662;28;20055;-61
2022/05/24 04:30:04;;;;;;;37.78;23.40;;;12.70;99.90;;;;;;5091068;28;20056;-62
2022/05/24 04:32:29;;;;;;;40.65;24.85;;;13.20;99.90;;;;;;5092402;28;20052;-62
2022/05/24 04:34:55;;;;;;;41.67;23.27;;;12.90;99.90;;;;;;5092428;28;20055;-65
2022/05/24 04:37:20;;;;;;;36.38;22.30;;;12.90;99.90;;;;;;5092440;28;20056;-62
2022/05/24 04:39:46;;;;;;;37.47;20.83;;;13.60;99.90;;;;;;5092531;28;20047;-64
2022/05/24 04:42:24;;;;;;;39.63;20.13;;;13.00;99.90;;;;;;5092571;28;20044;-62
2022/05/24 04:44:53;;;;;;;28.92;18.10;;;12.90;99.90;;;;;;5092129;28;20052;-62
2022/05/24 04:47:21;;;;;;;34.15;18.38;;;14.20;99.90;;;;;;5092308;28;20056;-62
2022/05/24 04:49:50;;;;;;;33.65;17.45;;;13.00;99.90;;;;;;5092163;28;20062;-66
2022/05/24 04:52:17;;;;;;;29.92;16.77;;;13.20;99.90;;;;;;5092447;28;20084;-62
2022/05/24 04:54:44;;;;;;;33.67;16.45;;;12.80;99.90;;;;;;5092129;28;20044;-62
2022/05/24 04:57:10;;;;;;;30.13;17.00;;;12.90;99.90;;;;;;5092224;28;20062;-62
2022/05/24 04:59:37;;;;;;;30.05;15.90;;;13.00;99.90;;;;;;5092296;28;20396;-62
2022/05/24 05:02:03;;;;;;;25.63;15.77;;;13.10;99.90;;;;;;5092121;28;20406;-62
2022/05/24 05:04:30;;;;;;;29.80;14.65;;;13.00;99.90;;;;;;5092402;28;20131;-61
2022/05/24 05:06:55;;;;;;;;;;;13.10;99.90;;;;;;5092619;28;20476;-62
2022/05/24 05:09:21;;;;;;;27.83;14.90;;;14.10;99.90;;;;;;5092207;28;19927;-61
2022/05/24 05:11:47;;;;;;;25.73;14.07;;;13.50;99.90;;;;;;5092041;28;20062;-64
2022/05/24 05:14:12;;;;;;;29.17;14.55;;;13.10;99.90;;;;;;5091986;28;20130;-63
2022/05/24 05:16:39;;;;;;;29.48;13.73;;;13.10;99.90;;;;;;5090858;28;20082;-62
2022/05/24 05:19:08;;;;;;;25.65;13.25;;;13.30;99.90;;;;;;5092175;28;20048;-61
2022/05/24 05:21:35;;;;;;;34.35;14.02;;;13.20;99.90;;;;;;5092135;28;20055;-62
2022/05/24 05:24:02;;;;;;;21.70;11.82;;;13.30;99.90;;;;;;5092083;28;20066;-62
2022/05/24 05:26:28;;;;;;;23.35;12.25;;;13.10;99.90;;;;;;5091903;28;20458;-62
2022/05/24 05:28:54;;;;;;;21.48;10.95;;;13.00;99.90;;;;;;5091659;28;20135;-62
2022/05/24 05:31:23;;;;;;;;;;;14.00;99.90;;;;;;5092274;28;20091;-62
2022/05/24 05:33:50;;;;;;;22.83;10.65;;;13.10;99.90;;;;;;5092111;28;20019;-62
2022/05/24 05:36:16;;;;;;;21.52;11.20;;;13.50;99.90;;;;;;5092323;28;20126;-61
2022/05/24 05:38:46;;;;;;;25.83;12.55;;;13.20;99.90;;;;;;5095912;28;20123;-62
2022/05/24 05:41:17;;;;;;;23.65;13.15;;;13.80;99.90;;;;;;5095572;28;20084;-62
2022/05/24 05:43:43;;;;;;;26.63;12.65;;;13.50;99.90;;;;;;5095494;28;20059;-64
2022/05/24 05:46:10;;;;;;;21.52;12.68;;;13.40;99.90;;;;;;5095419;28;20086;-62
2022/05/24 05:48:36;;;;;;;23.15;12.30;;;13.60;99.90;;;;;;5095455;28;20051;-62
2022/05/24 05:51:03;;;;;;;22.80;12.63;;;13.50;99.90;;;;;;5095140;28;20084;-62
2022/05/24 05:53:29;;;;;;;20.67;12.23;;;13.30;99.90;;;;;;5095307;28;20059;-63
2022/05/24 05:55:54;;;;;;;27.13;11.63;;;13.50;99.90;;;;;;5090616;28;20178;-79
2022/05/24 05:58:20;;;;;;;21.80;12.10;;;13.40;99.90;;;;;;5083436;28;20044;-62
2022/05/24 06:00:49;;;;;;;19.67;11.95;;;13.40;99.90;;;;;;5093533;28;20490;-62
2022/05/24 06:03:16;;;;;;;21.88;12.80;;;13.40;99.90;;;;;;5092983;28;20044;-62
2022/05/24 06:05:48;;;;;;;22.92;12.57;;;13.50;99.90;;;;;;5093450;28;20047;-61
2022/05/24 06:08:14;;;;;;;24.15;13.55;;;13.60;99.90;;;;;;5093715;28;20052;-66
2022/05/24 06:10:40;;;;;;;23.30;13.93;;;13.50;99.90;;;;;;5093553;28;20040;-62
2022/05/24 06:13:06;;;;;;;;;;;13.80;99.90;;;;;;5092022;28;20044;-62
2022/05/24 06:15:33;;;;;;;29.98;15.32;;;13.60;99.90;;;;;;5090116;28;19934;-61
2022/05/24 06:17:59;;;;;;;30.30;15.18;;;13.60;99.90;;;;;;5093162;28;20051;-62
2022/05/24 06:20:28;;;;;;;26.75;16.05;;;13.60;99.90;;;;;;5093438;28;20036;-62
2022/05/24 06:22:55;;;;;;;26.85;15.65;;;13.40;99.90;;;;;;5094621;28;20044;-62
2022/05/24 06:25:29;;;;;;;28.73;17.60;;;13.80;99.90;;;;;;5094473;28;20516;-64
2022/05/24 06:27:55;;;;;;;30.73;17.15;;;14.00;99.90;;;;;;5094425;28;20036;-62
2022/05/24 06:30:23;;;;;;;24.42;16.85;;;13.80;99.90;;;;;;5094481;28;20092;-62
2022/05/24 06:32:51;;;;;;;24.98;16.80;;;14.00;99.90;;;;;;5090393;28;20096;-77
2022/05/24 06:35:18;;;;;;;26.08;16.65;;;14.00;99.90;;;;;;5085348;28;20048;-61
2022/05/24 06:37:45;;;;;;;28.67;16.77;;;13.90;99.90;;;;;;5092532;28;20109;-62
2022/05/24 06:40:13;;;;;;;;;;;13.90;99.90;;;;;;5091695;28;20050;-78
2022/05/24 06:42:38;;;;;;;41.08;18.42;;;13.90;99.90;;;;;;5090410;28;19927;-62
2022/05/24 06:45:05;;;;;;;29.52;19.35;;;13.80;99.90;;;;;;5093986;28;20073;-62
2022/05/24 06:47:32;;;;;;;31.85;18.08;;;13.60;99.90;;;;;;5094310;28;20094;-63
2022/05/24 06:49:58;;;;;;;35.05;18.67;;;13.40;99.90;;;;;;5094296;28;20044;-62
2022/05/24 06:52:24;;;;;;;28.92;19.00;;;13.90;99.90;;;;;;5094204;28;20071;-62
2022/05/24 06:54:51;;;;;;;;;;;13.80;99.90;;;;;;5094510;28;20073;-62
2022/05/24 06:57:17;;;;;;;32.58;18.92;;;14.00;99.90;;;;;;5094423;28;19926;-62
2022/05/24 07:02:27;;;;;;;29.20;17.98;;;13.90;99.90;;;;;;5093019;28;20337;-62
2022/05/24 07:05:19;;;;;;;30.45;17.92;;;14.40;99.90;;;;;;5094162;28;20048;-62
2022/05/24 07:07:45;;;;;;;26.98;15.15;;;14.10;99.90;;;;;;5093916;28;20480;-63
2022/05/24 07:10:12;;;;;;;;;;;14.30;99.90;;;;;;5094325;28;20040;-62
2022/05/24 07:12:38;;;;;;;22.00;13.25;;;14.00;99.90;;;;;;5093049;28;20387;-62
2022/05/24 07:15:04;;;;;;;;;;;13.80;99.90;;;;;;5094510;28;20089;-63
2022/05/24 07:17:30;;;;;;;18.55;9.77;;;14.10;99.90;;;;;;5093823;28;19928;-63
2022/05/24 07:19:55;;;;;;;13.65;7.95;;;14.20;99.90;;;;;;5093735;28;20043;-63
2022/05/24 07:22:21;;;;;;;15.23;8.32;;;14.20;99.90;;;;;;5093987;28;20493;-63
2022/05/24 07:24:49;;;;;;;14.00;7.88;;;14.20;99.90;;;;;;5093724;28;20519;-62
2022/05/24 07:27:17;;;;;;;11.40;7.13;;;14.80;99.90;;;;;;5093705;28;20054;-63
2022/05/24 07:29:43;;;;;;;12.98;6.53;;;14.30;99.90;;;;;;5093564;28;20496;-63
2022/05/24 07:32:09;;;;;;;13.07;5.80;;;14.50;99.90;;;;;;5093314;28;20052;-63
2022/05/24 07:34:36;;;;;;;13.80;6.53;;;14.30;99.90;;;;;;5093402;28;20048;-62
2022/05/24 07:37:03;;;;;;;10.82;5.90;;;14.20;99.90;;;;;;5093154;28;20503;-62
2022/05/24 07:39:29;;;;;;;14.88;5.70;;;14.00;99.90;;;;;;5093622;28;20051;-63
2022/05/24 07:47:21;;;;;;;15.60;6.65;;;14.30;99.90;;;;;;5093578;28;20052;-63
2022/05/24 07:49:47;;;;;;;15.52;6.60;;;14.20;99.90;;;;;;5093305;28;20182;-63
2022/05/24 07:52:13;;;;;;;;;;;14.10;99.90;;;;;;5093547;28;20040;-62
2022/05/24 07:54:39;;;;;;;10.10;6.40;;;15.40;99.90;;;;;;5092927;28;19932;-68
2022/05/24 07:57:08;;;;;;;;;;;14.50;99.90;;;;;;5093491;28;20036;-63
2022/05/24 07:59:38;;;;;;;19.15;7.57;;;14.20;99.90;;;;;;5092440;28;20296;-65
2022/05/24 08:02:06;;;;;;;12.07;6.95;;;14.40;99.90;;;;;;5093197;28;20044;-62
2022/05/24 08:04:32;;;;;;;13.63;7.97;;;14.40;99.90;;;;;;5092857;28;20043;-63
2022/05/24 08:06:57;;;;;;;13.75;7.25;;;14.40;99.90;;;;;;5092886;28;20105;-62
2022/05/24 08:09:23;;;;;;;;;;;14.40;99.90;;;;;;5093117;28;20119;-63
2022/05/24 08:11:49;;;;;;;14.38;7.93;;;14.80;99.90;;;;;;5092558;28;19935;-62
2022/05/24 08:14:15;;;;;;;15.75;7.70;;;15.10;99.90;;;;;;5091877;28;20039;-63
2022/05/24 08:16:40;;;;;;;;;;;14.70;99.90;;;;;;5093180;28;20048;-63
2022/05/24 08:19:08;;;;;;;13.20;7.63;;;15.00;99.90;;;;;;5092899;28;20367;-63
2022/05/24 08:21:34;;;;;;;14.57;8.63;;;14.60;99.90;;;;;;5092644;28;20129;-62
2022/05/24 08:24:00;;;;;;;;;;;14.90;99.90;;;;;;5093015;28;20044;-63
2022/05/24 08:26:26;;;;;;;14.55;7.68;;;15.00;99.90;;;;;;5092487;28;20330;-63
2022/05/24 08:28:51;;;;;;;;;;;15.10;99.90;;;;;;5092563;28;20040;-62
2022/05/24 08:31:18;;;;;;;14.88;8.02;;;15.00;99.90;;;;;;5092776;28;20256;-62
2022/05/24 08:33:45;;;;;;;11.52;8.13;;;15.10;99.90;;;;;;5092536;28;20044;-62
2022/05/24 08:36:11;;;;;;;13.15;7.35;;;15.00;99.90;;;;;;5092587;28;20048;-62
2022/05/24 08:38:38;;;;;;;13.15;7.18;;;15.20;99.90;;;;;;5091193;28;20051;-65
2022/05/24 08:41:09;;;;;;;12.95;7.18;;;15.30;99.90;;;;;;5092355;28;20494;-62
2022/05/24 08:50:15;;;;;;;8.93;5.40;;;15.90;99.90;;;;;;5091542;28;20406;-62
2022/05/24 08:53:02;;;;;;;7.22;5.35;;;15.30;99.90;;;;;;5091189;28;20052;-63
2022/05/24 08:55:28;;;;;;;;;;;15.40;99.90;;;;;;5092670;28;20053;-62
2022/05/24 08:57:56;;;;;;;8.15;5.50;;;15.30;99.90;;;;;;5092223;28;19919;-62
2022/05/24 09:00:36;;;;;;;15.18;6.40;;;16.80;99.90;;;;;;5092281;28;20127;-62
2022/05/24 09:03:05;;;;;;;8.95;6.18;;;15.60;99.90;;;;;;5092357;28;20055;-62
2022/05/24 09:05:33;;;;;;;15.65;6.50;;;15.40;99.90;;;;;;5092221;28;20399;-61
2022/05/24 09:08:10;;;;;;;15.73;5.97;;;15.40;99.90;;;;;;5092136;28;20290;-63
2022/05/24 09:10:58;;;;;;;;;;;15.40;99.90;;;;;;5092830;28;20127;-63
2022/05/24 09:14:01;;;;;;;14.73;5.97;;;15.10;99.90;;;;;;5087488;28;19982;-62
2022/05/24 09:16:47;;;;;;;15.13;5.80;;;14.70;99.90;;;;;;5095912;28;20055;-60
2022/05/24 09:19:23;;;;;;;15.48;6.18;;;14.00;99.90;;;;;;5096212;28;20160;-60
2022/05/24 09:21:52;;;;;;;13.52;5.90;;;13.30;99.90;;;;;;5095955;28;20048;-61
2022/05/24 09:24:24;;;;;;;5.10;2.90;;;13.30;99.90;;;;;;5095960;28;20426;-61
2022/05/24 09:27:09;;;;;;;10.18;3.47;;;12.90;99.90;;;;;;5095846;28;20149;-66
2022/05/24 09:29:45;;;;;;;6.43;4.40;;;12.90;99.90;;;;;;5095754;28;20106;-61
2022/05/24 09:32:11;;;;;;;8.55;5.03;;;12.80;99.90;;;;;;5095970;28;20080;-62
2022/05/24 09:34:38;;;;;;;;;;;13.10;99.90;;;;;;5095986;28;20083;-63
2022/05/24 09:37:22;;;;;;;9.40;5.22;;;13.00;99.90;;;;;;5095607;28;20367;-62
2022/05/24 09:40:07;;;;;;;12.80;6.15;;;13.40;99.90;;;;;;5095516;28;20048;-62
2022/05/24 09:42:36;;;;;;;11.80;6.30;;;13.80;99.90;;;;;;5090688;28;20036;-62
2022/05/24 09:45:24;;;;;;;11.73;8.02;;;13.90;99.90;;;;;;5093472;28;20065;-64
2022/05/24 09:48:01;;;;;;;17.55;9.25;;;14.50;99.90;;;;;;5093424;28;20180;-62
2022/05/24 09:50:31;;;;;;;17.38;9.18;;;14.60;99.90;;;;;;5094309;28;20032;-63
2022/05/24 09:53:02;;;;;;;11.57;8.40;;;15.00;99.90;;;;;;5095330;28;20052;-62
2022/05/24 09:55:49;;;;;;;17.00;7.60;;;15.60;99.90;;;;;;5095404;28;20052;-62
2022/05/24 09:58:21;;;;;;;7.93;5.80;;;15.60;99.90;;;;;;5095278;28;20061;-62
2022/05/24 10:00:54;;;;;;;8.85;5.97;;;15.20;99.90;;;;;;5095226;28;20056;-63
2022/05/24 10:03:29;;;;;;;8.05;6.63;;;15.40;99.90;;;;;;5095447;28;20140;-62
2022/05/24 10:06:20;;;;;;;8.90;5.22;;;15.60;99.90;;;;;;5095279;28;20567;-63
2022/05/24 10:08:58;;;;;;;8.27;5.32;;;15.60;99.90;;;;;;5095567;28;20051;-64
2022/05/24 10:11:43;;;;;;;6.60;4.75;;;15.50;99.90;;;;;;5095341;28;20040;-63
2022/05/24 10:14:34;;;;;;;5.45;3.70;;;15.50;99.90;;;;;;5095228;28;20051;-63
2022/05/24 10:17:37;;;;;;;5.18;3.50;;;15.90;99.90;;;;;;5094076;28;20171;-64
2022/05/24 10:20:12;;;;;;;7.03;4.75;;;15.90;99.90;;;;;;5094004;28;20090;-65
2022/05/24 10:22:43;;;;;;;7.03;4.30;;;15.70;99.90;;;;;;5094628;28;20040;-64
2022/05/24 10:25:26;;;;;;;4.60;3.92;;;16.10;99.90;;;;;;5094875;28;20402;-63
2022/05/24 10:28:18;;;;;;;5.72;3.60;;;16.30;99.90;;;;;;5094831;28;20047;-64
2022/05/24 10:31:17;;;;;;;6.38;4.32;;;15.80;99.90;;;;;;5085557;28;20048;-63
2022/05/24 10:38:17;;;;;;;14.68;5.47;;;15.50;99.90;;;;;;5093360;28;20055;-62
2022/05/24 10:40:25;;;;;;;17.10;3.22;;;14.30;99.90;;;;;;5094323;28;20131;-61
2022/05/24 10:43:14;;;;;;;1.27;1.00;;;13.80;99.90;;;;;;5094812;28;20044;-65
2022/05/24 10:45:52;;;;;;;3.70;1.88;;;12.70;99.90;;;;;;5093285;28;20458;-61
2022/05/24 10:48:38;;;;;;;4.57;1.98;;;13.60;99.90;;;;;;5094297;28;20553;-62
2022/05/24 10:51:15;;;;;;;7.47;2.58;;;13.10;99.90;;;;;;5094698;28;20036;-63
2022/05/24 10:53:58;;;;;;;7.32;2.65;;;13.80;99.90;;;;;;5094515;28;20051;-62
2022/05/24 10:56:33;;;;;;;4.75;3.30;;;13.80;99.90;;;;;;5094830;28;21158;-63
2022/05/24 10:59:22;;;;;;;6.40;3.88;;;13.90;99.90;;;;;;5093014;28;20048;-63
2022/05/24 11:01:55;;;;;;;7.28;4.53;;;13.90;99.90;;;;;;5093183;28;20154;-63
2022/05/24 11:04:26;;;;;;;7.90;5.32;;;14.00;99.90;;;;;;5094053;28;20468;-67
2022/05/24 11:07:02;;;;;;;8.38;5.47;;;13.80;99.90;;;;;;5093997;28;20051;-63
2022/05/24 11:09:32;;;;;;;10.32;6.00;;;15.10;99.90;;;;;;5094062;28;20036;-62
2022/05/24 11:12:05;;;;;;;9.90;6.72;;;13.90;99.90;;;;;;5093888;28;20399;-61
2022/05/24 11:14:46;;;;;;;14.75;7.53;;;14.00;99.90;;;;;;5093868;28;20048;-61
2022/05/24 11:17:13;;;;;;;12.38;7.90;;;14.00;99.90;;;;;;5093705;28;20575;-62
2022/05/24 11:19:45;;;;;;;15.05;9.25;;;14.90;99.90;;;;;;5093445;28;20048;-62
2022/05/24 11:22:26;;;;;;;16.35;10.32;;;13.70;99.90;;;;;;5093953;28;20044;-61
2022/05/24 11:25:00;;;;;;;7.32;4.95;;;13.30;99.90;;;;;;5093852;28;20066;-63
2022/05/24 11:27:46;;;;;;;10.20;3.90;;;13.60;99.90;;;;;;5093533;28;20048;-61
2022/05/24 11:30:34;;;;;;;6.00;2.05;;;13.50;99.90;;;;;;5093126;28;20519;-63
2022/05/24 11:33:02;;;;;;;5.60;2.10;;;13.80;99.90;;;;;;5093445;28;20498;-62
2022/05/24 11:35:35;;;;;;;5.85;2.00;;;15.00;99.90;;;;;;5092723;28;20512;-62
2022/05/24 11:38:41;;;;;;;6.68;2.25;;;14.70;99.90;;;;;;5093415;28;20051;-61
2022/05/24 11:41:12;;;;;;;3.50;2.15;;;14.40;99.90;;;;;;5092468;28;20523;-62
2022/05/24 11:43:43;;;;;;;4.82;2.15;;;14.40;99.90;;;;;;5093383;28;20156;-62
2022/05/24 11:46:33;;;;;;;5.97;1.95;;;14.60;99.90;;;;;;5093119;28;20044;-61
2022/05/24 11:49:04;;;;;;;4.07;2.28;;;14.00;99.90;;;;;;5093028;28;20067;-64
2022/05/24 11:51:37;;;;;;;7.40;3.10;;;14.00;99.90;;;;;;5093391;28;20043;-60
2022/05/24 11:54:19;;;;;;;7.15;3.22;;;13.90;99.90;;;;;;5093106;28;20044;-62
2022/05/24 11:57:02;;;;;;;5.82;2.55;;;14.00;99.90;;;;;;5093112;28;20079;-61
2022/05/24 11:59:40;;;;;;;4.57;1.75;;;13.90;99.90;;;;;;5092151;28;20056;-61
2022/05/24 12:02:32;;;;;;;4.60;1.85;;;14.00;99.90;;;;;;5092974;28;20104;-62
2022/05/24 12:08:28;;;;;;;2.92;2.00;;;13.90;99.90;;;;;;5093087;28;20143;-62
2022/05/24 12:11:13;;;;;;;6.18;2.30;;;14.40;99.90;;;;;;5092771;28;20041;-63
2022/05/24 12:13:45;;;;;;;6.10;2.45;;;14.70;99.90;;;;;;5092811;28;20059;-64
2022/05/24 12:16:38;;;;;;;4.82;2.25;;;14.90;99.90;;;;;;5092669;28;20048;-63
2022/05/24 12:19:06;;;;;;;5.10;1.90;;;15.30;99.90;;;;;;5092786;28;20047;-63
2022/05/24 12:21:39;;;;;;;4.00;2.00;;;15.10;99.90;;;;;;5092658;28;20091;-61
2022/05/24 12:24:32;;;;;;;4.68;1.60;;;14.80;99.90;;;;;;5092525;28;20044;-62
2022/05/24 12:27:30;;;;;;;8.15;2.03;;;15.00;99.90;;;;;;5092793;28;20062;-64
2022/05/24 12:29:59;;;;;;;4.30;1.70;;;15.20;99.90;;;;;;5092672;28;20078;-63
2022/05/24 12:32:30;;;;;;;6.78;1.88;;;14.80;99.90;;;;;;5092433;28;20087;-63
2022/05/24 12:35:05;;;;;;;6.32;1.63;;;14.70;99.90;;;;;;5092802;28;20048;-63
2022/05/24 12:37:35;;;;;;;3.07;1.80;;;14.90;99.90;;;;;;5092523;28;20058;-63
2022/05/24 12:40:24;;;;;;;7.20;2.30;;;14.70;99.90;;;;;;5092552;28;20040;-63
2022/05/24 12:42:56;;;;;;;8.68;1.70;;;14.90;99.90;;;;;;5092345;28;20051;-63
2022/05/24 12:45:34;;;;;;;4.35;1.85;;;15.70;99.90;;;;;;5092774;28;20122;-62
2022/05/24 12:48:00;;;;;;;5.47;1.65;;;15.00;99.90;;;;;;5096808;28;20081;-63
2022/05/24 12:50:36;;;;;;;6.05;1.60;;;15.60;99.90;;;;;;5096508;28;20040;-63
2022/05/24 12:53:08;;;;;;;5.20;1.90;;;15.80;99.90;;;;;;5096563;28;20039;-63
2022/05/24 12:58:27;;;;;;;3.72;1.50;;;16.10;99.90;;;;;;5095514;28;20060;-63
2022/05/24 13:01:12;;;;;;;8.40;1.40;;;16.10;99.90;;;;;;5096523;28;20408;-63
2022/05/24 13:03:51;;;;;;;3.28;1.50;;;15.60;99.90;;;;;;5096277;28;20056;-63
2022/05/24 13:06:29;;;;;;;5.63;1.50;;;15.20;99.90;;;;;;5096448;28;20090;-63
2022/05/24 13:09:18;;;;;;;4.72;1.50;;;15.50;99.90;;;;;;5096351;28;20051;-63
2022/05/24 13:11:52;;;;;;;5.07;1.50;;;15.50;99.90;;;;;;5096117;28;20048;-63
2022/05/24 13:14:32;;;;;;;5.50;1.30;;;16.30;99.90;;;;;;5096048;28;20079;-62
2022/05/24 13:16:58;;;;;;;4.07;1.20;;;15.90;99.90;;;;;;5096116;28;20048;-62
2022/05/24 13:19:23;;;;;;;;;;;15.30;99.90;;;;;;5096564;28;20067;-63
2022/05/24 13:21:55;;;;;;;2.45;1.10;;;15.80;99.90;;;;;;5095831;28;20291;-62
2022/05/24 13:24:21;;;;;;;4.25;1.60;;;15.50;99.90;;;;;;5095876;28;20048;-62
2022/05/24 13:26:57;;;;;;;;;;;15.40;99.90;;;;;;5096072;28;20043;-63
2022/05/24 13:29:24;;;;;;;4.90;1.20;;;15.20;99.90;;;;;;5095580;28;19920;-63
2022/05/24 13:34:36;;;;;;;5.03;1.42;;;15.70;99.90;;;;;;5095685;28;20106;-63